»·PEaware :: JUS326 KGPI-KHLN

JUS326 :: KGPI-KHLN

FLIGHT INFORMATION

Flight Status: Arrived
Operator:
USA Jet
More flights by this operator :: More flights under this callsign
Pilot: Erik S. (3779)
Aircraft: MCDONNELL-DOUGLAS DC-9-10
(DC91)
More flights by this aircraft type
Origin: KGPI Glacier Park Intl
United States
Destination: KHLN Helena Regl
United States
More flights between these airports :: More routes between these airports
Route: +SCOTT2 SCOTT FCA V536 CHOTE V365 HLN
File this flight plan on PilotEdge
Remarks:
Altitude:
(Current/Filed)
23,000ft
Speed:
(Current/Filed)
390kts
Departed: 08-Apr-18 08:47 AM
Arrived: 08-Apr-18 09:28 AM
Distance/Time
Traveled:
138nm/0:41
Distance/Time
To Go:
Arrived

Flight Plot

Page will automatically refresh every two minutes.

Flight plan parsing failed; only flown route is shown


Map Options




Map Legend


Flown Route
Filed Route
Departure Airport
Arrival Airport
Navaid (VOR, NDB)
Fix

Horizontal Profiles

Position Reports

Time Latitude Longitude Heading Altitude Ground
Speed
08-Apr-18 08:30 48.310729 -114.250462 177 2984ft 0kts
08-Apr-18 08:31 48.310729 -114.250462 177 2984ft 0kts
08-Apr-18 08:32 48.310729 -114.250462 177 2984ft 0kts
08-Apr-18 08:33 48.310729 -114.250462 177 2984ft 0kts
08-Apr-18 08:34 48.310729 -114.250462 177 2984ft 0kts
08-Apr-18 08:35 48.310628 -114.250458 177 2984ft 0kts
08-Apr-18 08:36 48.310628 -114.250458 177 2984ft 0kts
08-Apr-18 08:37 48.310628 -114.250458 177 2984ft 0kts
08-Apr-18 08:38 48.310628 -114.250458 177 2984ft 0kts
08-Apr-18 08:39 48.310417 -114.250629 252 2984ft 5kts
08-Apr-18 08:40 48.313393 -114.250417 34 2984ft 15kts
08-Apr-18 08:41 48.317787 -114.245703 32 2984ft 18kts
08-Apr-18 08:42 48.317927 -114.245575 26 2984ft 0kts
08-Apr-18 08:43 48.318454 -114.245581 334 2984ft 0kts
08-Apr-18 08:46 48.313051 -114.252743 215 2984ft 127kts
08-Apr-18 08:47 48.278607 -114.251756 138 4919ft 187kts
08-Apr-18 08:48 48.232848 -114.193198 135 8022ft 230kts
08-Apr-18 08:49 48.159969 -114.166366 184 10432ft 299kts
08-Apr-18 08:50 48.066560 -114.161274 176 12342ft 360kts
08-Apr-18 08:51 47.966254 -114.153738 179 15298ft 365kts
08-Apr-18 08:52 47.865168 -114.149022 179 18077ft 365kts
08-Apr-18 08:53 47.763362 -114.144365 179 20301ft 371kts
08-Apr-18 08:54 47.687763 -114.055323 99 21860ft 380kts
08-Apr-18 08:55 47.702986 -113.900565 74 22966ft 396kts
08-Apr-18 08:56 47.728739 -113.734990 74 22945ft 417kts
08-Apr-18 08:57 47.754854 -113.567552 74 22946ft 416kts
08-Apr-18 08:58 47.780810 -113.400148 74 22946ft 416kts
08-Apr-18 08:59 47.806774 -113.232049 74 22946ft 416kts
08-Apr-18 09:00 47.832534 -113.064345 74 22946ft 416kts
08-Apr-18 09:01 47.831882 -112.893283 101 22947ft 423kts
08-Apr-18 09:02 47.800506 -112.724551 104 22948ft 424kts
08-Apr-18 09:03 47.768140 -112.556380 105 22945ft 424kts
08-Apr-18 09:04 47.712264 -112.405667 142 22949ft 428kts
08-Apr-18 09:05 47.624471 -112.286996 135 22946ft 428kts
08-Apr-18 09:06 47.534792 -112.172218 149 22948ft 429kts
08-Apr-18 09:07 47.423848 -112.120594 171 20630ft 432kts
08-Apr-18 09:08 47.313098 -112.093850 171 18677ft 380kts
08-Apr-18 09:09 47.210804 -112.073648 173 15961ft 366kts
08-Apr-18 09:10 47.113025 -112.054531 173 14068ft 347kts
08-Apr-18 09:11 47.024499 -112.036902 173 12022ft 311kts
08-Apr-18 09:12 46.941593 -112.019309 170 10039ft 289kts
08-Apr-18 09:13 46.866257 -112.008114 176 9850ft 266kts
08-Apr-18 09:14 46.792701 -112.002487 175 10028ft 265kts
08-Apr-18 09:15 46.719677 -111.985515 169 10085ft 269kts
08-Apr-18 09:16 46.649601 -111.969809 169 9973ft 234kts
08-Apr-18 09:17 46.597297 -111.928545 100 9743ft 211kts
08-Apr-18 09:18 46.587859 -111.848909 106 9627ft 192kts
08-Apr-18 09:19 46.572349 -111.777145 101 9737ft 182kts
08-Apr-18 09:20 46.558909 -111.705033 101 8662ft 182kts
08-Apr-18 09:21 46.565730 -111.648005 354 7509ft 173kts
08-Apr-18 09:22 46.567175 -111.708896 258 7427ft 188kts
08-Apr-18 09:23 46.573705 -111.780943 289 6583ft 166kts
08-Apr-18 09:24 46.584074 -111.843071 283 5670ft 155kts
08-Apr-18 09:25 46.593967 -111.903504 282 4797ft 150kts
08-Apr-18 09:26 46.602995 -111.963149 282 3944ft 145kts
08-Apr-18 09:27 46.605499 -111.984845 194 3884ft 0kts
08-Apr-18 09:28 46.605499 -111.984845 194 3884ft 0kts
08-Apr-18 09:29 46.604977 -111.984661 138 3884ft 16kts
08-Apr-18 09:30 46.602950 -111.983693 270 3884ft 0kts

Navigation Log

Ident Type
Flight plan parsing failed, navigation log unavailable